createdAt,value
2023-05-21T00:01:45.681Z,53.80
2023-05-21T00:04:13.255Z,53.90
2023-05-21T00:06:40.170Z,54.00
2023-05-21T00:09:07.796Z,54.20
2023-05-21T00:11:34.630Z,54.40
2023-05-21T00:14:01.527Z,54.40
2023-05-21T00:16:29.784Z,54.50
2023-05-21T00:18:59.309Z,54.70
2023-05-21T00:21:27.019Z,54.80
2023-05-21T00:23:56.645Z,54.90
2023-05-21T00:26:24.240Z,54.90
2023-05-21T00:28:51.354Z,55.00
2023-05-21T00:31:19.157Z,55.20
2023-05-21T00:33:46.305Z,55.40
2023-05-21T00:36:14.497Z,55.50
2023-05-21T00:38:44.097Z,55.60
2023-05-21T00:41:11.295Z,55.80
2023-05-21T00:43:42.094Z,55.90
2023-05-21T00:46:12.300Z,56.10
2023-05-21T00:48:39.767Z,56.20
2023-05-21T00:51:07.356Z,56.40
2023-05-21T00:53:37.796Z,56.50
2023-05-21T00:56:05.038Z,56.60
2023-05-21T00:58:35.491Z,56.60
2023-05-21T01:01:03.849Z,56.80
2023-05-21T01:03:33.378Z,56.90
2023-05-21T01:06:00.453Z,57.00
2023-05-21T01:08:28.766Z,57.10
2023-05-21T01:10:56.788Z,57.30
2023-05-21T01:13:26.247Z,57.50
2023-05-21T01:15:54.320Z,57.80
2023-05-21T01:18:22.042Z,57.80
2023-05-21T01:20:49.233Z,57.90
2023-05-21T01:23:20.276Z,58.00
2023-05-21T01:25:47.732Z,58.20
2023-05-21T01:28:14.992Z,58.40
2023-05-21T01:30:45.153Z,58.50
2023-05-21T01:33:43.984Z,58.50
2023-05-21T01:36:33.091Z,58.80
2023-05-21T01:39:09.942Z,59.00
2023-05-21T01:41:41.075Z,59.10
2023-05-21T01:44:12.621Z,59.20
2023-05-21T01:46:40.361Z,59.30
2023-05-21T01:49:08.741Z,59.40
2023-05-21T01:51:40.920Z,59.60
2023-05-21T01:54:07.648Z,59.70
2023-05-21T01:56:36.965Z,59.60
2023-05-21T01:59:03.856Z,59.70
2023-05-21T02:01:31.220Z,59.90
2023-05-21T02:03:58.381Z,60.10
2023-05-21T02:06:25.240Z,60.20
2023-05-21T02:08:52.425Z,60.50
2023-05-21T02:11:19.289Z,60.60
2023-05-21T02:13:46.226Z,60.70
2023-05-21T02:16:14.781Z,60.70
2023-05-21T02:18:44.560Z,60.80
2023-05-21T02:21:14.283Z,61.00
2023-05-21T02:23:42.822Z,61.00
2023-05-21T02:26:09.618Z,61.00
2023-05-21T02:28:36.553Z,61.10
2023-05-21T02:31:04.038Z,61.30
2023-05-21T02:33:31.159Z,61.40
2023-05-21T02:35:58.061Z,61.60
2023-05-21T02:38:25.892Z,61.60
2023-05-21T02:40:53.127Z,61.60
2023-05-21T02:43:20.023Z,61.80
2023-05-21T02:45:47.320Z,61.90
2023-05-21T02:48:14.271Z,61.90
2023-05-21T02:50:41.148Z,62.10
2023-05-21T02:53:07.918Z,62.30
2023-05-21T02:55:35.113Z,62.40
2023-05-21T02:58:02.506Z,62.50
2023-05-21T03:00:29.344Z,62.60
2023-05-21T03:02:56.688Z,62.80
2023-05-21T03:05:24.471Z,62.90
2023-05-21T03:07:51.344Z,62.90
2023-05-21T03:10:18.106Z,63.10
2023-05-21T03:12:45.221Z,63.20
2023-05-21T03:15:15.124Z,63.30
2023-05-21T03:17:42.482Z,63.40
2023-05-21T03:20:16.036Z,63.70
2023-05-21T03:22:44.671Z,63.80
2023-05-21T03:25:12.638Z,63.80
2023-05-21T03:27:39.877Z,64.00
2023-05-21T03:30:07.331Z,64.20
2023-05-21T03:32:37.855Z,64.30
2023-05-21T03:35:05.569Z,64.60
2023-05-21T03:37:32.417Z,64.90
2023-05-21T03:39:59.189Z,65.10
2023-05-21T03:42:26.252Z,65.30
2023-05-21T03:44:53.227Z,65.30
2023-05-21T03:47:22.461Z,65.40
2023-05-21T03:49:49.367Z,65.70
2023-05-21T03:52:16.579Z,65.70
2023-05-21T03:54:43.375Z,65.80
2023-05-21T03:57:10.169Z,65.90
2023-05-21T03:59:37.093Z,66.50
2023-05-21T04:02:04.042Z,66.10
2023-05-21T04:04:30.830Z,66.40
2023-05-21T04:06:57.653Z,67.00
2023-05-21T04:09:24.606Z,66.70
2023-05-21T04:11:51.417Z,66.80
2023-05-21T04:14:18.241Z,66.70
2023-05-21T04:16:45.432Z,66.80
2023-05-21T04:19:12.366Z,66.80
2023-05-21T04:21:39.172Z,66.90
2023-05-21T04:24:06.476Z,67.10
2023-05-21T04:26:34.400Z,67.30
2023-05-21T04:29:05.985Z,67.50
2023-05-21T04:31:32.925Z,67.70
2023-05-21T04:33:59.889Z,68.40
2023-05-21T04:36:29.046Z,68.00
2023-05-21T04:38:56.120Z,68.20
2023-05-21T04:41:23.265Z,68.90
2023-05-21T04:43:55.084Z,69.10
2023-05-21T04:46:25.637Z,68.50
2023-05-21T04:48:58.294Z,68.30
2023-05-21T04:51:26.675Z,68.30
2023-05-21T04:53:54.317Z,68.40
2023-05-21T04:56:26.363Z,68.70
2023-05-21T04:58:59.048Z,68.90
2023-05-21T05:01:27.462Z,69.00
2023-05-21T05:03:54.552Z,69.00
2023-05-21T05:06:21.650Z,69.20
2023-05-21T05:08:49.579Z,69.40
2023-05-21T05:11:16.593Z,69.40
2023-05-21T05:13:43.430Z,69.60
2023-05-21T05:16:10.440Z,69.70
2023-05-21T05:18:37.778Z,69.80
2023-05-21T05:21:05.802Z,69.90
2023-05-21T05:23:32.586Z,70.10
2023-05-21T05:25:59.543Z,70.20
2023-05-21T05:28:26.455Z,70.30
2023-05-21T05:30:53.274Z,70.40
2023-05-21T05:33:20.161Z,70.60
2023-05-21T05:35:47.169Z,70.60
2023-05-21T05:38:14.227Z,70.70
2023-05-21T05:40:41.010Z,70.70
2023-05-21T05:43:07.802Z,70.60
2023-05-21T05:45:35.133Z,70.80
2023-05-21T05:48:02.359Z,70.90
2023-05-21T05:50:29.181Z,70.90
2023-05-21T05:52:56.192Z,70.80
2023-05-21T05:55:25.133Z,71.00
2023-05-21T05:57:54.988Z,71.10
2023-05-21T06:00:23.399Z,71.00
2023-05-21T06:02:50.391Z,71.00
2023-05-21T06:05:17.273Z,71.10
2023-05-21T06:07:44.559Z,71.20
2023-05-21T06:10:11.579Z,71.30
2023-05-21T06:12:38.415Z,71.30
2023-05-21T06:15:07.244Z,71.30
2023-05-21T06:17:34.137Z,71.20
2023-05-21T06:20:01.137Z,71.10
2023-05-21T06:22:27.932Z,71.00
2023-05-21T06:24:54.905Z,70.90
2023-05-21T06:27:21.842Z,70.80
2023-05-21T06:29:48.609Z,70.90
2023-05-21T06:32:15.650Z,70.80
2023-05-21T06:34:42.708Z,70.60
2023-05-21T06:37:10.502Z,70.40
2023-05-21T06:39:37.567Z,70.10
2023-05-21T06:42:04.419Z,69.70
2023-05-21T06:44:31.308Z,69.50
2023-05-21T06:46:58.140Z,69.50
2023-05-21T06:49:25.356Z,69.40
2023-05-21T06:51:52.348Z,69.20
2023-05-21T06:54:19.182Z,69.00
2023-05-21T06:56:46.143Z,69.10
2023-05-21T06:59:14.203Z,69.20
2023-05-21T07:01:42.667Z,69.20
2023-05-21T07:04:11.343Z,69.10
2023-05-21T07:06:38.924Z,69.10
2023-05-21T07:09:06.178Z,69.20
2023-05-21T07:11:33.226Z,69.40
2023-05-21T07:14:04.262Z,69.60
2023-05-21T07:16:31.240Z,69.60
2023-05-21T07:18:58.480Z,69.30
2023-05-21T07:21:25.306Z,69.10
2023-05-21T07:23:52.118Z,68.80
2023-05-21T07:26:20.129Z,68.60
2023-05-21T07:28:47.316Z,68.00
2023-05-21T07:31:14.196Z,68.00
2023-05-21T07:33:41.180Z,68.00
2023-05-21T07:36:08.202Z,68.00
2023-05-21T07:38:35.656Z,67.90
2023-05-21T07:41:02.583Z,67.60
2023-05-21T07:43:29.644Z,67.50
2023-05-21T07:45:56.623Z,67.20
2023-05-21T07:48:23.570Z,67.00
2023-05-21T07:50:52.663Z,66.60
2023-05-21T07:53:19.801Z,66.20
2023-05-21T07:55:48.034Z,66.10
2023-05-21T07:58:19.779Z,65.90
2023-05-21T08:00:47.848Z,65.70
2023-05-21T08:03:18.737Z,66.00
2023-05-21T08:05:48.718Z,66.10
2023-05-21T08:08:17.534Z,65.80
2023-05-21T08:10:44.702Z,65.80
2023-05-21T08:13:16.656Z,65.70
2023-05-21T08:15:43.670Z,65.80
2023-05-21T08:18:12.009Z,65.80
2023-05-21T08:20:39.069Z,65.60
2023-05-21T08:23:06.155Z,65.30
2023-05-21T08:25:33.225Z,64.90
2023-05-21T08:28:00.544Z,65.20
2023-05-21T08:30:27.484Z,65.60
2023-05-21T08:32:55.690Z,66.10
2023-05-21T08:35:24.150Z,65.40
2023-05-21T08:37:51.388Z,65.30
2023-05-21T08:40:19.822Z,65.00
2023-05-21T08:42:47.689Z,64.60
2023-05-21T08:45:20.010Z,64.90
2023-05-21T08:47:47.083Z,65.10
2023-05-21T08:50:16.293Z,65.10
2023-05-21T08:52:43.048Z,64.90
2023-05-21T08:55:10.792Z,64.70
2023-05-21T08:57:39.320Z,64.40
2023-05-21T09:00:08.509Z,64.30
2023-05-21T09:02:36.509Z,64.60
2023-05-21T09:05:04.456Z,64.80
2023-05-21T09:07:33.264Z,64.20
2023-05-21T09:10:06.089Z,63.50
2023-05-21T09:12:33.052Z,63.20
2023-05-21T09:15:01.402Z,63.30
2023-05-21T09:17:28.365Z,63.10
2023-05-21T09:20:16.118Z,62.50
2023-05-21T09:22:49.301Z,61.70
2023-05-21T09:25:19.312Z,62.00
2023-05-21T09:27:46.292Z,62.20
2023-05-21T09:30:15.103Z,62.10
2023-05-21T09:32:43.078Z,61.40
2023-05-21T09:35:16.006Z,61.60
2023-05-21T09:37:45.108Z,61.50
2023-05-21T09:40:16.227Z,60.30
2023-05-21T09:42:49.324Z,59.80
2023-05-21T09:45:27.064Z,59.50
2023-05-21T09:47:56.160Z,59.50
2023-05-21T09:50:25.213Z,59.30
2023-05-21T09:52:55.985Z,58.70
2023-05-21T09:55:24.742Z,58.20
2023-05-21T09:57:52.864Z,57.40
2023-05-21T10:00:28.187Z,57.40
2023-05-21T10:02:56.228Z,57.50
2023-05-21T10:05:30.593Z,57.30
2023-05-21T10:08:03.241Z,57.00
2023-05-21T10:10:31.784Z,57.50
2023-05-21T10:13:04.423Z,57.50
2023-05-21T10:15:36.563Z,57.50
2023-05-21T10:18:04.797Z,58.00
2023-05-21T10:20:33.202Z,58.00
2023-05-21T10:23:01.540Z,58.10
2023-05-21T10:25:31.550Z,58.50
2023-05-21T10:27:58.639Z,57.80
2023-05-21T10:30:25.762Z,57.70
2023-05-21T10:32:55.994Z,57.60
2023-05-21T10:35:23.510Z,57.00
2023-05-21T10:37:52.271Z,57.40
2023-05-21T10:40:19.462Z,57.60
2023-05-21T10:43:19.891Z,57.40
2023-05-21T10:46:23.895Z,57.20
2023-05-21T10:49:08.926Z,56.40
2023-05-21T10:52:00.688Z,56.90
2023-05-21T10:55:05.089Z,56.60
2023-05-21T10:57:43.620Z,56.50
2023-05-21T11:00:12.743Z,56.60
2023-05-21T11:02:40.085Z,55.90
2023-05-21T11:05:07.625Z,54.90
2023-05-21T11:07:56.675Z,55.10
2023-05-21T11:10:40.781Z,54.50
2023-05-21T11:13:08.733Z,54.10
2023-05-21T11:16:02.274Z,53.90
2023-05-21T11:18:38.572Z,53.50
2023-05-21T11:21:14.718Z,53.30
2023-05-21T11:24:06.614Z,52.60
2023-05-21T11:26:48.946Z,53.20
2023-05-21T11:29:16.473Z,53.10
2023-05-21T11:31:48.037Z,52.80
2023-05-21T11:34:21.770Z,52.60
2023-05-21T11:36:49.717Z,52.50
2023-05-21T11:39:23.973Z,52.50
2023-05-21T11:42:04.619Z,52.70
2023-05-21T11:44:45.777Z,52.40
2023-05-21T11:47:17.786Z,51.50
2023-05-21T11:49:46.383Z,51.70
2023-05-21T11:52:14.250Z,51.70
2023-05-21T11:54:50.826Z,51.80
2023-05-21T11:57:19.602Z,52.50
2023-05-21T11:59:47.299Z,52.40
2023-05-21T12:02:22.049Z,51.90
2023-05-21T12:04:50.670Z,51.70
2023-05-21T12:07:20.790Z,51.40
2023-05-21T12:09:51.725Z,51.30
2023-05-21T12:12:25.682Z,51.30
2023-05-21T12:14:54.732Z,51.20
2023-05-21T12:17:23.224Z,51.20
2023-05-21T12:19:53.110Z,50.90
2023-05-21T12:22:20.871Z,50.50
2023-05-21T12:24:48.790Z,51.00
2023-05-21T12:27:18.682Z,50.50
2023-05-21T12:29:50.531Z,49.80
2023-05-21T12:32:17.993Z,49.80
2023-05-21T12:34:49.965Z,49.60
2023-05-21T12:37:18.228Z,49.20
2023-05-21T12:39:47.739Z,49.60
2023-05-21T12:42:14.930Z,48.90
2023-05-21T12:44:46.729Z,48.70
2023-05-21T12:47:14.356Z,49.20
2023-05-21T12:49:48.008Z,49.20
2023-05-21T12:52:18.593Z,49.00
2023-05-21T12:54:49.526Z,49.20
2023-05-21T12:57:18.575Z,49.00
2023-05-21T12:59:59.087Z,48.70
2023-05-21T13:02:32.401Z,48.40
2023-05-21T13:05:02.357Z,48.00
2023-05-21T13:07:31.996Z,47.70
2023-05-21T13:09:59.558Z,47.50
2023-05-21T13:12:27.939Z,47.90
2023-05-21T13:14:56.874Z,47.90
2023-05-21T13:17:24.888Z,48.20
2023-05-21T13:20:16.956Z,47.70
2023-05-21T13:22:50.146Z,48.10
2023-05-21T13:25:20.472Z,47.80
2023-05-21T13:27:52.432Z,47.70
2023-05-21T13:30:20.857Z,46.90
2023-05-21T13:32:48.650Z,46.40
2023-05-21T13:35:16.604Z,46.40
2023-05-21T13:37:43.810Z,46.70
2023-05-21T13:40:14.720Z,46.00
2023-05-21T13:42:42.027Z,46.50
2023-05-21T13:45:11.062Z,46.40
2023-05-21T13:47:40.446Z,46.30
2023-05-21T13:50:08.586Z,46.10
2023-05-21T13:52:36.013Z,45.60
2023-05-21T13:55:03.204Z,45.20
2023-05-21T13:57:31.149Z,45.20
2023-05-21T13:59:58.971Z,45.00
2023-05-21T14:02:26.293Z,45.60
2023-05-21T14:04:56.296Z,45.10
2023-05-21T14:07:23.272Z,45.00
2023-05-21T14:09:50.470Z,44.40
2023-05-21T14:12:17.382Z,44.30
2023-05-21T14:14:44.555Z,44.50
2023-05-21T14:17:11.537Z,44.90
2023-05-21T14:19:38.257Z,44.70
2023-05-21T14:22:05.418Z,44.30
2023-05-21T14:24:32.320Z,43.90
2023-05-21T14:26:59.136Z,43.70
2023-05-21T14:29:26.066Z,43.70
2023-05-21T14:31:53.259Z,43.70
2023-05-21T14:34:20.161Z,44.00
2023-05-21T14:36:47.371Z,44.00
2023-05-21T14:39:14.297Z,44.20
2023-05-21T14:41:41.561Z,43.50
2023-05-21T14:44:08.581Z,42.80
2023-05-21T14:46:37.375Z,42.70
2023-05-21T14:49:04.648Z,43.40
2023-05-21T14:51:31.844Z,43.50
2023-05-21T14:53:59.093Z,43.30
2023-05-21T14:56:27.841Z,43.00
2023-05-21T14:58:55.402Z,43.00
2023-05-21T15:01:22.320Z,42.60
2023-05-21T15:03:49.468Z,42.50
2023-05-21T15:06:16.554Z,42.60
2023-05-21T15:08:43.432Z,42.70
2023-05-21T15:11:10.363Z,42.70
2023-05-21T15:13:37.890Z,42.60
2023-05-21T15:16:05.074Z,43.00
2023-05-21T15:18:31.976Z,42.50
2023-05-21T15:20:59.278Z,42.30
2023-05-21T15:23:26.748Z,42.00
2023-05-21T15:25:53.641Z,42.10
2023-05-21T15:28:21.095Z,42.20
2023-05-21T15:30:47.905Z,42.10
2023-05-21T15:33:14.941Z,42.10
2023-05-21T15:35:42.565Z,42.00
2023-05-21T15:38:09.913Z,42.10
2023-05-21T15:40:42.207Z,42.20
2023-05-21T15:43:09.238Z,42.10
2023-05-21T15:45:38.560Z,42.20
2023-05-21T15:48:06.469Z,42.50
2023-05-21T15:50:35.452Z,42.30
2023-05-21T15:53:03.566Z,42.70
2023-05-21T15:55:33.832Z,42.40
2023-05-21T15:58:02.434Z,42.30
2023-05-21T16:00:32.144Z,42.30
2023-05-21T16:02:59.215Z,42.50
2023-05-21T16:05:26.515Z,42.20
2023-05-21T16:07:53.529Z,41.80
2023-05-21T16:10:21.976Z,41.60
2023-05-21T16:12:49.769Z,41.60
2023-05-21T16:15:18.836Z,41.70
2023-05-21T16:17:46.547Z,41.70
2023-05-21T16:20:13.824Z,41.90
2023-05-21T16:22:40.652Z,41.90
2023-05-21T16:25:08.124Z,41.80
2023-05-21T16:27:35.542Z,41.70
2023-05-21T16:30:02.580Z,41.50
2023-05-21T16:32:29.485Z,41.50
2023-05-21T16:34:56.367Z,41.40
2023-05-21T16:37:23.104Z,41.40
2023-05-21T16:39:49.959Z,41.60
2023-05-21T16:42:16.798Z,41.40
2023-05-21T16:44:43.538Z,41.50
2023-05-21T16:47:10.476Z,41.80
2023-05-21T16:49:37.233Z,41.50
2023-05-21T16:52:04.253Z,41.70
2023-05-21T16:54:31.065Z,41.50
2023-05-21T16:56:57.953Z,41.50
2023-05-21T16:59:25.188Z,41.60
2023-05-21T17:01:52.157Z,41.50
2023-05-21T17:04:19.150Z,41.40
2023-05-21T17:06:46.041Z,41.80
2023-05-21T17:09:12.936Z,42.00
2023-05-21T17:11:42.289Z,42.10
2023-05-21T17:14:10.749Z,42.50
2023-05-21T17:16:37.672Z,42.90
2023-05-21T17:19:04.589Z,43.20
2023-05-21T17:21:31.975Z,43.50
2023-05-21T17:23:58.754Z,43.70
2023-05-21T17:26:26.573Z,43.80
2023-05-21T17:28:53.874Z,44.30
2023-05-21T17:31:22.093Z,44.50
2023-05-21T17:33:49.100Z,44.80
2023-05-21T17:36:16.705Z,45.30
2023-05-21T17:38:44.269Z,45.70
2023-05-21T17:41:11.470Z,45.90
2023-05-21T17:43:38.218Z,46.30
2023-05-21T17:46:05.316Z,46.50
2023-05-21T17:48:32.206Z,46.80
2023-05-21T17:50:59.029Z,47.20
2023-05-21T17:53:26.002Z,47.60
2023-05-21T17:55:54.058Z,47.80
2023-05-21T17:58:21.414Z,48.10
2023-05-21T18:00:48.300Z,48.20
2023-05-21T18:03:16.261Z,48.50
2023-05-21T18:05:43.118Z,48.80
2023-05-21T18:08:10.377Z,49.00
2023-05-21T18:10:38.115Z,49.20
2023-05-21T18:13:05.238Z,49.30
2023-05-21T18:15:33.316Z,49.50
2023-05-21T18:18:01.226Z,49.80
2023-05-21T18:20:28.575Z,49.90
2023-05-21T18:22:55.443Z,50.00
2023-05-21T18:25:22.414Z,50.20
2023-05-21T18:27:49.291Z,50.30
2023-05-21T18:30:16.311Z,50.70
2023-05-21T18:32:44.805Z,50.90
2023-05-21T18:35:13.701Z,50.90
2023-05-21T18:37:44.613Z,51.20
2023-05-21T18:40:12.948Z,51.40
2023-05-21T18:42:41.432Z,51.80
2023-05-21T18:45:10.350Z,51.90
2023-05-21T18:47:39.390Z,52.10
2023-05-21T18:50:14.323Z,52.20
2023-05-21T18:52:41.669Z,52.50
2023-05-21T18:55:09.136Z,52.60
2023-05-21T18:57:36.061Z,52.70
2023-05-21T19:00:03.225Z,53.00
2023-05-21T19:02:30.317Z,53.10
2023-05-21T19:04:57.165Z,53.30
2023-05-21T19:07:24.012Z,53.50
2023-05-21T19:09:52.784Z,53.60
2023-05-21T19:12:19.538Z,53.80
2023-05-21T19:14:46.584Z,53.90
2023-05-21T19:17:13.762Z,54.10
2023-05-21T19:19:41.331Z,54.50
2023-05-21T19:22:08.488Z,54.60
2023-05-21T19:24:35.551Z,54.90
2023-05-21T19:27:02.555Z,55.30
2023-05-21T19:29:29.274Z,55.50
2023-05-21T19:31:58.382Z,55.70
2023-05-21T19:34:26.923Z,56.00
2023-05-21T19:36:54.216Z,56.30
2023-05-21T19:39:21.523Z,56.60
2023-05-21T19:41:48.452Z,57.00
2023-05-21T19:44:15.481Z,57.50
2023-05-21T19:46:42.332Z,58.00
2023-05-21T19:49:11.185Z,58.30
2023-05-21T19:51:38.128Z,58.80
2023-05-21T19:54:05.064Z,59.30
2023-05-21T19:56:31.810Z,59.80
2023-05-21T19:58:58.653Z,60.20
2023-05-21T20:01:25.555Z,60.80
2023-05-21T20:03:52.518Z,61.20
2023-05-21T20:06:21.024Z,61.60
2023-05-21T20:08:48.073Z,62.00
2023-05-21T20:11:15.015Z,62.50
2023-05-21T20:13:42.306Z,62.70
2023-05-21T20:16:10.541Z,63.20
2023-05-21T20:18:39.029Z,63.40
2023-05-21T20:21:06.506Z,63.80
2023-05-21T20:23:33.429Z,64.20
2023-05-21T20:26:00.234Z,64.70
2023-05-21T20:28:27.174Z,65.10
2023-05-21T20:30:57.969Z,65.60
2023-05-21T20:33:25.576Z,65.90
2023-05-21T20:35:53.933Z,66.10
2023-05-21T20:38:21.072Z,66.60
2023-05-21T20:40:47.932Z,66.90
2023-05-21T20:43:15.246Z,67.30
2023-05-21T20:45:43.634Z,67.70
2023-05-21T20:48:12.076Z,68.10
2023-05-21T20:50:41.097Z,68.50
2023-05-21T20:53:09.119Z,68.90
2023-05-21T20:55:39.323Z,69.60
2023-05-21T20:58:06.216Z,70.00
2023-05-21T21:00:33.442Z,70.20
2023-05-21T21:03:03.806Z,70.40
2023-05-21T21:05:31.006Z,70.80
2023-05-21T21:08:02.402Z,71.20
2023-05-21T21:10:29.257Z,71.60
2023-05-21T21:12:56.187Z,72.00
2023-05-21T21:15:23.341Z,72.30
2023-05-21T21:17:50.650Z,72.80
2023-05-21T21:20:18.704Z,73.00
2023-05-21T21:22:46.318Z,73.30
2023-05-21T21:25:16.546Z,73.70
2023-05-21T21:27:44.560Z,74.00
2023-05-21T21:30:11.724Z,74.10
2023-05-21T21:32:38.772Z,74.30
2023-05-21T21:35:07.452Z,74.60
2023-05-21T21:37:34.516Z,75.00
2023-05-21T21:40:01.239Z,75.40
2023-05-21T21:42:28.350Z,75.50
2023-05-21T21:44:55.081Z,75.70
2023-05-21T21:47:21.993Z,76.00
2023-05-21T21:49:49.405Z,76.30
2023-05-21T21:52:17.410Z,76.60
2023-05-21T21:54:46.599Z,76.80
2023-05-21T21:57:13.542Z,76.90
2023-05-21T21:59:40.540Z,77.10
2023-05-21T22:02:09.233Z,77.20
2023-05-21T22:04:36.040Z,77.30
2023-05-21T22:07:05.367Z,77.60
2023-05-21T22:09:32.265Z,77.80
2023-05-21T22:11:59.153Z,78.10
2023-05-21T22:14:26.212Z,78.30
2023-05-21T22:16:53.508Z,78.70
2023-05-21T22:19:26.187Z,78.80
2023-05-21T22:21:54.417Z,78.90
2023-05-21T22:24:32.148Z,79.20
2023-05-21T22:27:00.488Z,79.50
2023-05-21T22:29:27.596Z,79.50
2023-05-21T22:31:54.389Z,79.60
2023-05-21T22:34:22.296Z,79.80
2023-05-21T22:36:49.339Z,80.00
2023-05-21T22:39:17.165Z,80.40
2023-05-21T22:41:44.973Z,80.70
2023-05-21T22:44:11.771Z,80.90
2023-05-21T22:46:39.033Z,81.10
2023-05-21T22:49:06.349Z,81.30
2023-05-21T22:51:34.692Z,81.30
2023-05-21T22:54:01.765Z,81.50
2023-05-21T22:56:29.257Z,81.90
2023-05-21T22:58:56.576Z,82.20
2023-05-21T23:01:23.907Z,82.40
2023-05-21T23:03:52.513Z,82.80
2023-05-21T23:06:19.435Z,83.10
2023-05-21T23:08:46.503Z,83.40
2023-05-21T23:11:13.760Z,83.70
2023-05-21T23:13:40.745Z,83.80
2023-05-21T23:16:07.716Z,84.10
2023-05-21T23:18:36.875Z,84.30
2023-05-21T23:21:06.745Z,84.90
2023-05-21T23:23:33.501Z,85.40
2023-05-21T23:26:00.358Z,85.60
2023-05-21T23:28:27.178Z,85.60
2023-05-21T23:30:54.131Z,85.80
2023-05-21T23:33:21.686Z,85.80
2023-05-21T23:35:48.685Z,85.90
2023-05-21T23:38:15.901Z,86.00
2023-05-21T23:40:47.841Z,86.10
2023-05-21T23:43:14.558Z,86.20
2023-05-21T23:45:41.907Z,86.40
2023-05-21T23:48:09.075Z,86.50
2023-05-21T23:50:37.010Z,86.60
2023-05-21T23:53:04.462Z,86.60
2023-05-21T23:55:31.511Z,86.60
2023-05-21T23:57:58.410Z,86.70
